createdAt,value
2023-03-16T00:02:27.232Z,100.00
2023-03-16T00:04:55.536Z,100.00
2023-03-16T00:07:23.914Z,100.00
2023-03-16T00:09:52.068Z,100.00
2023-03-16T00:12:20.493Z,100.00
2023-03-16T00:14:50.372Z,100.00
2023-03-16T00:17:21.388Z,100.00
2023-03-16T00:19:54.896Z,100.00
2023-03-16T00:22:25.104Z,100.00
2023-03-16T00:24:53.665Z,100.00
2023-03-16T00:27:23.616Z,100.00
2023-03-16T00:29:56.243Z,100.00
2023-03-16T00:32:29.144Z,100.00
2023-03-16T00:34:57.500Z,100.00
2023-03-16T00:37:27.693Z,100.00
2023-03-16T00:39:56.659Z,100.00
2023-03-16T00:42:27.935Z,100.00
2023-03-16T00:44:57.648Z,100.00
2023-03-16T00:47:29.737Z,100.00
2023-03-16T00:49:58.818Z,100.00
2023-03-16T00:52:27.786Z,100.00
2023-03-16T00:54:57.246Z,100.00
2023-03-16T00:57:27.799Z,100.00
2023-03-16T00:59:57.259Z,100.00
2023-03-16T01:02:27.207Z,100.00
2023-03-16T01:04:55.405Z,100.00
2023-03-16T01:07:23.919Z,100.00
2023-03-16T01:09:52.284Z,100.00
2023-03-16T01:12:20.957Z,100.00
2023-03-16T01:14:49.407Z,100.00
2023-03-16T01:17:18.656Z,100.00
2023-03-16T01:19:48.134Z,100.00
2023-03-16T01:22:17.343Z,100.00
2023-03-16T01:24:46.798Z,100.00
2023-03-16T01:27:15.800Z,100.00
2023-03-16T01:29:44.589Z,100.00
2023-03-16T01:32:13.977Z,100.00
2023-03-16T01:34:42.933Z,100.00
2023-03-16T01:37:14.461Z,100.00
2023-03-16T01:40:00.250Z,100.00
2023-03-16T01:42:28.464Z,100.00
2023-03-16T01:45:01.674Z,100.00
2023-03-16T01:47:38.119Z,100.00
2023-03-16T01:50:08.436Z,100.00
2023-03-16T01:52:42.255Z,100.00
2023-03-16T01:55:13.670Z,100.00
2023-03-16T01:57:46.035Z,100.00
2023-03-16T02:00:19.855Z,100.00
2023-03-16T02:03:08.804Z,100.00
2023-03-16T02:06:04.198Z,100.00
2023-03-16T02:08:38.565Z,100.00
2023-03-16T02:11:09.429Z,100.00
2023-03-16T02:14:03.149Z,100.00
2023-03-16T02:16:31.866Z,100.00
2023-03-16T02:19:01.000Z,100.00
2023-03-16T02:21:36.541Z,100.00
2023-03-16T02:24:07.856Z,100.00
2023-03-16T02:26:44.889Z,100.00
2023-03-16T02:29:27.840Z,100.00
2023-03-16T02:31:59.919Z,100.00
2023-03-16T02:34:29.511Z,100.00
2023-03-16T02:36:59.412Z,100.00
2023-03-16T02:39:29.962Z,100.00
2023-03-16T02:41:59.052Z,100.00
2023-03-16T02:44:29.983Z,100.00
2023-03-16T02:47:04.736Z,100.00
2023-03-16T02:49:37.450Z,100.00
2023-03-16T02:52:06.910Z,100.00
2023-03-16T02:54:35.325Z,100.00
2023-03-16T02:57:04.350Z,100.00
2023-03-16T02:59:34.095Z,100.00
2023-03-16T03:02:03.864Z,100.00
2023-03-16T03:04:33.060Z,100.00
2023-03-16T03:07:04.857Z,100.00
2023-03-16T03:09:38.301Z,100.00
2023-03-16T03:12:07.097Z,100.00
2023-03-16T03:14:37.983Z,100.00
2023-03-16T03:17:08.306Z,100.00
2023-03-16T03:19:37.433Z,100.00
2023-03-16T03:22:06.889Z,100.00
2023-03-16T03:24:35.632Z,100.00
2023-03-16T03:27:05.752Z,100.00
2023-03-16T03:29:36.115Z,100.00
2023-03-16T03:32:05.427Z,100.00
2023-03-16T03:34:35.508Z,100.00
2023-03-16T03:37:05.497Z,100.00
2023-03-16T03:39:33.737Z,100.00
2023-03-16T03:42:02.989Z,100.00
2023-03-16T03:44:34.603Z,100.00
2023-03-16T03:47:03.017Z,100.00
2023-03-16T03:49:31.292Z,100.00
2023-03-16T03:52:04.694Z,100.00
2023-03-16T03:54:32.839Z,100.00
2023-03-16T03:57:06.951Z,100.00
2023-03-16T03:59:40.788Z,100.00
2023-03-16T04:02:25.002Z,100.00
2023-03-16T04:04:55.691Z,100.00
2023-03-16T04:07:25.220Z,100.00
2023-03-16T04:09:57.415Z,100.00
2023-03-16T04:12:30.895Z,100.00
2023-03-16T04:14:59.564Z,100.00
2023-03-16T04:17:34.334Z,100.00
2023-03-16T04:20:07.771Z,100.00
2023-03-16T04:22:38.358Z,100.00
2023-03-16T04:25:07.139Z,100.00
2023-03-16T04:27:38.181Z,100.00
2023-03-16T04:30:12.916Z,100.00
2023-03-16T04:32:45.362Z,100.00
2023-03-16T04:35:19.113Z,100.00
2023-03-16T04:37:55.917Z,100.00
2023-03-16T04:40:30.636Z,100.00
2023-03-16T04:43:07.584Z,100.00
2023-03-16T04:45:36.641Z,100.00
2023-03-16T04:48:05.266Z,100.00
2023-03-16T04:50:33.518Z,100.00
2023-03-16T04:53:04.471Z,100.00
2023-03-16T04:55:34.003Z,100.00
2023-03-16T04:58:03.309Z,100.00
2023-03-16T05:00:35.628Z,100.00
2023-03-16T05:03:24.033Z,100.00
2023-03-16T05:05:52.357Z,100.00
2023-03-16T05:08:22.022Z,100.00
2023-03-16T05:10:52.423Z,100.00
2023-03-16T05:13:20.874Z,100.00
2023-03-16T05:15:53.761Z,100.00
2023-03-16T05:18:29.825Z,100.00
2023-03-16T05:20:58.054Z,100.00
2023-03-16T05:23:34.516Z,100.00
2023-03-16T05:26:05.142Z,100.00
2023-03-16T05:28:36.603Z,100.00
2023-03-16T05:31:11.989Z,100.00
2023-03-16T05:33:45.006Z,100.00
2023-03-16T05:36:18.715Z,100.00
2023-03-16T05:38:51.472Z,100.00
2023-03-16T05:41:30.605Z,100.00
2023-03-16T05:44:05.913Z,100.00
2023-03-16T05:46:59.931Z,100.00
2023-03-16T05:49:28.687Z,100.00
2023-03-16T05:51:57.996Z,100.00
2023-03-16T05:54:27.578Z,100.00
2023-03-16T05:56:55.815Z,100.00
2023-03-16T05:59:24.142Z,100.00
2023-03-16T06:01:56.212Z,100.00
2023-03-16T06:04:24.408Z,100.00
2023-03-16T06:06:52.736Z,100.00
2023-03-16T06:09:23.656Z,100.00
2023-03-16T06:11:53.914Z,100.00
2023-03-16T06:14:23.229Z,100.00
2023-03-16T06:16:52.602Z,100.00
2023-03-16T06:19:21.624Z,100.00
2023-03-16T06:21:54.657Z,100.00
2023-03-16T06:24:22.900Z,100.00
2023-03-16T06:26:53.940Z,100.00
2023-03-16T06:29:25.527Z,99.56
2023-03-16T06:31:54.667Z,98.87
2023-03-16T06:34:24.338Z,98.43
2023-03-16T06:36:53.088Z,98.00
2023-03-16T06:39:21.396Z,97.87
2023-03-16T06:41:51.575Z,97.55
2023-03-16T06:44:21.081Z,97.13
2023-03-16T06:46:59.364Z,96.12
2023-03-16T06:49:27.752Z,96.03
2023-03-16T06:51:56.674Z,95.23
2023-03-16T06:54:26.423Z,94.64
2023-03-16T06:56:54.784Z,93.93
2023-03-16T06:59:24.964Z,93.18
2023-03-16T07:01:53.159Z,93.25
2023-03-16T07:04:21.735Z,92.60
2023-03-16T07:06:51.411Z,92.81
2023-03-16T07:09:19.626Z,92.48
2023-03-16T07:11:47.781Z,92.22
2023-03-16T07:14:16.611Z,92.06
2023-03-16T07:16:46.707Z,91.53
2023-03-16T07:19:14.878Z,90.57
2023-03-16T07:21:43.123Z,89.54
2023-03-16T07:24:16.372Z,88.48
2023-03-16T07:26:44.711Z,87.14
2023-03-16T07:29:19.215Z,86.25
2023-03-16T07:31:49.201Z,85.79
2023-03-16T07:34:21.416Z,85.66
2023-03-16T07:36:55.670Z,84.30
2023-03-16T07:39:26.586Z,83.20
2023-03-16T07:42:01.499Z,82.96
2023-03-16T07:44:44.687Z,82.64
2023-03-16T07:47:15.545Z,81.50
2023-03-16T07:49:45.318Z,81.48
2023-03-16T07:52:14.589Z,80.20
2023-03-16T07:54:43.696Z,78.93
2023-03-16T07:57:13.052Z,78.52
2023-03-16T07:59:44.020Z,78.33
2023-03-16T08:02:18.915Z,78.16
2023-03-16T08:04:47.831Z,77.66
2023-03-16T08:07:17.088Z,77.02
2023-03-16T08:10:12.500Z,75.94
2023-03-16T08:12:46.418Z,76.27
2023-03-16T08:15:15.532Z,76.35
2023-03-16T08:17:46.697Z,75.33
2023-03-16T08:20:21.140Z,74.26
2023-03-16T08:22:49.752Z,74.20
2023-03-16T08:25:22.363Z,73.78
2023-03-16T08:27:59.259Z,73.28
2023-03-16T08:30:27.881Z,73.21
2023-03-16T08:33:14.915Z,73.00
2023-03-16T08:35:44.985Z,73.42
2023-03-16T08:38:16.160Z,73.11
2023-03-16T08:40:48.598Z,72.43
2023-03-16T08:43:19.151Z,71.85
2023-03-16T08:45:49.411Z,71.65
2023-03-16T08:48:20.578Z,70.58
2023-03-16T08:50:51.787Z,69.72
2023-03-16T08:53:21.009Z,69.77
2023-03-16T08:55:49.398Z,68.92
2023-03-16T08:58:18.000Z,68.64
2023-03-16T09:00:47.417Z,69.22
2023-03-16T09:03:16.467Z,69.42
2023-03-16T09:05:45.919Z,69.94
2023-03-16T09:08:14.062Z,70.12
2023-03-16T09:10:42.498Z,68.77
2023-03-16T09:13:10.641Z,68.03
2023-03-16T09:15:39.104Z,66.74
2023-03-16T09:18:07.335Z,65.98
2023-03-16T09:20:35.835Z,65.11
2023-03-16T09:23:05.807Z,65.05
2023-03-16T09:25:33.975Z,64.93
2023-03-16T09:28:02.104Z,64.50
2023-03-16T09:30:30.497Z,65.16
2023-03-16T09:32:59.556Z,64.04
2023-03-16T09:35:27.968Z,64.44
2023-03-16T09:38:06.358Z,64.59
2023-03-16T09:40:38.982Z,63.66
2023-03-16T09:43:30.802Z,64.13
2023-03-16T09:46:07.928Z,63.76
2023-03-16T09:48:38.359Z,63.79
2023-03-16T09:51:09.703Z,63.44
2023-03-16T09:53:40.028Z,63.34
2023-03-16T09:56:13.582Z,63.58
2023-03-16T09:58:41.923Z,63.26
2023-03-16T10:01:19.039Z,61.61
2023-03-16T10:04:13.495Z,61.49
2023-03-16T10:06:49.519Z,60.35
2023-03-16T10:09:28.343Z,61.54
2023-03-16T10:12:01.456Z,60.82
2023-03-16T10:14:35.088Z,58.26
2023-03-16T10:17:08.371Z,57.43
2023-03-16T10:19:41.997Z,57.85
2023-03-16T10:22:21.021Z,56.46
2023-03-16T10:24:58.971Z,56.90
2023-03-16T10:27:31.241Z,56.74
2023-03-16T10:30:01.268Z,57.14
2023-03-16T10:32:34.602Z,57.12
2023-03-16T10:35:06.036Z,54.49
2023-03-16T10:37:34.851Z,54.19
2023-03-16T10:40:12.411Z,53.76
2023-03-16T10:42:42.243Z,55.27
2023-03-16T10:45:24.166Z,54.12
2023-03-16T10:47:52.442Z,52.45
2023-03-16T10:50:25.134Z,53.02
2023-03-16T10:52:58.249Z,53.74
2023-03-16T10:55:31.148Z,52.91
2023-03-16T10:58:01.310Z,52.12
2023-03-16T11:00:31.061Z,50.51
2023-03-16T11:03:01.211Z,51.24
2023-03-16T11:05:32.342Z,51.58
2023-03-16T11:08:03.620Z,50.81
2023-03-16T11:10:40.474Z,50.66
2023-03-16T11:13:18.181Z,50.39
2023-03-16T11:15:51.776Z,50.06
2023-03-16T11:18:31.026Z,49.62
2023-03-16T11:21:03.220Z,48.80
2023-03-16T11:23:35.573Z,50.18
2023-03-16T11:26:08.984Z,49.84
2023-03-16T11:28:44.496Z,48.93
2023-03-16T11:31:24.408Z,49.88
2023-03-16T11:33:55.464Z,49.77
2023-03-16T11:36:39.385Z,48.65
2023-03-16T11:39:16.172Z,50.17
2023-03-16T11:41:57.340Z,48.96
2023-03-16T11:44:33.988Z,49.04
2023-03-16T11:47:07.345Z,49.02
2023-03-16T11:49:51.977Z,49.08
2023-03-16T11:52:33.207Z,46.74
2023-03-16T11:55:13.091Z,46.84
2023-03-16T11:57:52.128Z,46.92
2023-03-16T12:00:32.256Z,49.17
2023-03-16T12:03:24.804Z,48.93
2023-03-16T12:06:22.308Z,47.46
2023-03-16T12:09:17.323Z,48.51
2023-03-16T12:11:53.199Z,47.08
2023-03-16T12:14:27.439Z,48.08
2023-03-16T12:17:03.707Z,46.63
2023-03-16T12:19:41.332Z,47.08
2023-03-16T12:22:17.891Z,46.43
2023-03-16T12:24:48.067Z,47.37
2023-03-16T12:27:18.551Z,46.90
2023-03-16T12:29:59.645Z,47.14
2023-03-16T12:32:40.440Z,44.92
2023-03-16T12:35:22.635Z,44.08
2023-03-16T12:38:01.615Z,43.20
2023-03-16T12:40:36.277Z,44.08
2023-03-16T12:43:17.351Z,44.25
2023-03-16T12:45:53.076Z,44.25
2023-03-16T12:48:29.879Z,44.17
2023-03-16T12:51:00.891Z,44.30
2023-03-16T12:53:39.618Z,44.10
2023-03-16T12:56:10.012Z,44.09
2023-03-16T12:58:43.946Z,44.61
2023-03-16T13:01:15.316Z,44.11
2023-03-16T13:03:48.085Z,43.92
2023-03-16T13:06:24.883Z,45.38
2023-03-16T13:08:57.872Z,46.51
2023-03-16T13:11:27.067Z,46.75
2023-03-16T13:14:09.437Z,46.46
2023-03-16T13:16:38.680Z,46.20
2023-03-16T13:19:28.633Z,45.69
2023-03-16T13:22:20.852Z,45.79
2023-03-16T13:24:55.093Z,45.54
2023-03-16T13:27:28.386Z,45.16
2023-03-16T13:29:58.780Z,45.17
2023-03-16T13:32:31.638Z,46.63
2023-03-16T13:35:03.308Z,45.52
2023-03-16T13:37:31.863Z,45.39
2023-03-16T13:40:01.725Z,47.16
2023-03-16T13:42:31.498Z,46.24
2023-03-16T13:45:08.634Z,45.18
2023-03-16T13:47:36.950Z,45.24
2023-03-16T13:50:06.956Z,45.16
2023-03-16T13:52:36.519Z,45.30
2023-03-16T13:55:15.345Z,44.17
2023-03-16T13:57:45.617Z,43.24
2023-03-16T14:00:20.210Z,42.74
2023-03-16T14:02:52.574Z,41.96
2023-03-16T14:05:24.540Z,42.07
2023-03-16T14:07:53.268Z,41.79
2023-03-16T14:10:22.478Z,41.39
2023-03-16T14:12:54.725Z,40.61
2023-03-16T14:15:26.164Z,39.64
2023-03-16T14:17:55.080Z,40.05
2023-03-16T14:20:26.426Z,39.90
2023-03-16T14:22:54.919Z,39.73
2023-03-16T14:25:27.475Z,39.86
2023-03-16T14:28:00.903Z,40.75
2023-03-16T14:30:31.578Z,41.56
2023-03-16T14:33:02.314Z,42.30
2023-03-16T14:35:33.532Z,42.77
2023-03-16T14:38:19.857Z,42.67
2023-03-16T14:40:54.813Z,43.38
2023-03-16T14:43:27.904Z,44.06
2023-03-16T14:45:56.242Z,44.95
2023-03-16T14:48:25.260Z,44.90
2023-03-16T14:50:57.453Z,44.93
2023-03-16T14:53:28.306Z,45.42
2023-03-16T14:55:56.638Z,43.32
2023-03-16T14:58:25.552Z,42.81
2023-03-16T15:00:54.816Z,43.33
2023-03-16T15:03:32.804Z,43.31
2023-03-16T15:06:03.731Z,43.39
2023-03-16T15:08:34.511Z,43.79
2023-03-16T15:11:06.188Z,43.14
2023-03-16T15:13:52.941Z,43.63
2023-03-16T15:16:23.020Z,43.81
2023-03-16T15:18:51.910Z,43.83
2023-03-16T15:21:26.872Z,43.81
2023-03-16T15:23:58.493Z,44.50
2023-03-16T15:26:28.783Z,44.87
2023-03-16T15:28:58.207Z,44.48
2023-03-16T15:31:26.734Z,45.04
2023-03-16T15:33:55.011Z,44.35
2023-03-16T15:36:24.870Z,44.75
2023-03-16T15:38:55.547Z,44.99
2023-03-16T15:41:26.991Z,45.55
2023-03-16T15:44:00.958Z,45.41
2023-03-16T15:46:29.237Z,45.37
2023-03-16T15:48:57.777Z,45.43
2023-03-16T15:51:30.948Z,45.45
2023-03-16T15:54:01.350Z,45.31
2023-03-16T15:56:36.594Z,44.88
2023-03-16T15:59:16.888Z,45.63
2023-03-16T16:01:47.555Z,45.22
2023-03-16T16:04:19.605Z,45.33
2023-03-16T16:06:50.111Z,44.82
2023-03-16T16:09:18.291Z,45.62
2023-03-16T16:11:48.370Z,44.88
2023-03-16T16:14:18.423Z,44.29
2023-03-16T16:16:47.070Z,45.33
2023-03-16T16:19:16.443Z,45.46
2023-03-16T16:21:44.710Z,45.93
2023-03-16T16:24:14.130Z,46.48
2023-03-16T16:26:52.146Z,46.75
2023-03-16T16:29:24.449Z,47.09
2023-03-16T16:31:52.994Z,47.83
2023-03-16T16:34:24.454Z,47.61
2023-03-16T16:36:53.164Z,48.18
2023-03-16T16:39:23.126Z,49.01
2023-03-16T16:41:54.466Z,49.54
2023-03-16T16:44:25.529Z,49.84
2023-03-16T16:46:55.284Z,50.53
2023-03-16T16:49:25.450Z,51.09
2023-03-16T16:51:54.631Z,50.85
2023-03-16T16:54:25.721Z,52.17
2023-03-16T16:56:55.084Z,52.46
2023-03-16T16:59:25.806Z,53.36
2023-03-16T17:01:54.845Z,53.15
2023-03-16T17:04:25.289Z,53.60
2023-03-16T17:06:57.260Z,54.41
2023-03-16T17:09:28.917Z,54.65
2023-03-16T17:12:00.939Z,55.49
2023-03-16T17:14:31.108Z,56.55
2023-03-16T17:17:05.136Z,57.06
2023-03-16T17:19:33.451Z,58.26
2023-03-16T17:22:03.211Z,58.78
2023-03-16T17:24:32.681Z,59.41
2023-03-16T17:27:01.871Z,59.53
2023-03-16T17:29:32.307Z,60.53
2023-03-16T17:32:02.343Z,61.87
2023-03-16T17:34:33.481Z,63.68
2023-03-16T17:37:02.712Z,63.69
2023-03-16T17:39:33.768Z,65.13
2023-03-16T17:42:05.359Z,64.43
2023-03-16T17:44:37.052Z,63.16
2023-03-16T17:47:13.342Z,62.31
2023-03-16T17:49:41.848Z,63.80
2023-03-16T17:52:18.032Z,63.93
2023-03-16T17:54:48.155Z,63.33
2023-03-16T17:57:18.927Z,63.26
2023-03-16T17:59:48.043Z,64.06
2023-03-16T18:02:37.329Z,63.93
2023-03-16T18:05:08.709Z,64.31
2023-03-16T18:07:36.950Z,64.54
2023-03-16T18:10:07.646Z,64.16
2023-03-16T18:12:35.844Z,63.33
2023-03-16T18:15:04.565Z,62.73
2023-03-16T18:17:33.642Z,63.14
2023-03-16T18:20:02.312Z,64.42
2023-03-16T18:22:30.782Z,65.37
2023-03-16T18:24:59.422Z,66.04
2023-03-16T18:27:28.883Z,67.34
2023-03-16T18:29:57.022Z,67.75
2023-03-16T18:32:27.341Z,68.97
2023-03-16T18:34:55.945Z,68.92
2023-03-16T18:37:27.007Z,68.87
2023-03-16T18:39:55.860Z,68.95
2023-03-16T18:42:25.897Z,69.18
2023-03-16T18:44:55.771Z,69.95
2023-03-16T18:47:31.385Z,70.31
2023-03-16T18:50:00.500Z,70.63
2023-03-16T18:52:32.764Z,70.98
2023-03-16T18:55:00.904Z,71.37
2023-03-16T18:57:29.783Z,71.47
2023-03-16T18:59:59.258Z,71.91
2023-03-16T19:02:37.190Z,71.55
2023-03-16T19:05:09.026Z,69.35
2023-03-16T19:07:38.851Z,69.40
2023-03-16T19:10:18.583Z,69.23
2023-03-16T19:12:46.704Z,68.32
2023-03-16T19:15:20.895Z,69.12
2023-03-16T19:17:49.474Z,69.63
2023-03-16T19:20:20.158Z,70.59
2023-03-16T19:22:51.045Z,71.63
2023-03-16T19:25:23.205Z,72.82
2023-03-16T19:27:51.898Z,72.39
2023-03-16T19:30:25.596Z,72.79
2023-03-16T19:32:54.763Z,71.99
2023-03-16T19:35:33.741Z,71.10
2023-03-16T19:38:09.317Z,71.40
2023-03-16T19:40:37.463Z,71.60
2023-03-16T19:43:05.821Z,72.23
2023-03-16T19:45:35.640Z,71.80
2023-03-16T19:48:03.818Z,72.33
2023-03-16T19:50:32.190Z,72.04
2023-03-16T19:53:00.890Z,71.55
2023-03-16T19:55:32.343Z,70.34
2023-03-16T19:58:02.758Z,70.08
2023-03-16T20:00:31.378Z,70.42
2023-03-16T20:03:01.055Z,68.54
2023-03-16T20:05:32.981Z,66.86
2023-03-16T20:08:02.115Z,66.56
2023-03-16T20:10:32.746Z,65.69
2023-03-16T20:13:02.496Z,63.70
2023-03-16T20:15:33.741Z,64.12
2023-03-16T20:18:03.673Z,64.30
2023-03-16T20:20:35.126Z,65.13
2023-03-16T20:23:03.249Z,67.07
2023-03-16T20:25:35.100Z,67.48
2023-03-16T20:28:05.111Z,66.86
2023-03-16T20:30:33.361Z,66.72
2023-03-16T20:33:03.630Z,65.59
2023-03-16T20:35:32.506Z,65.03
2023-03-16T20:38:00.990Z,64.24
2023-03-16T20:40:29.224Z,64.64
2023-03-16T20:42:57.518Z,64.23
2023-03-16T20:45:27.180Z,63.72
2023-03-16T20:47:56.721Z,63.57
2023-03-16T20:50:28.556Z,63.66
2023-03-16T20:52:58.275Z,63.67
2023-03-16T20:55:29.071Z,63.11
2023-03-16T20:57:58.813Z,63.33
2023-03-16T21:00:34.828Z,63.56
2023-03-16T21:03:07.686Z,64.13
2023-03-16T21:05:37.488Z,64.11
2023-03-16T21:08:06.468Z,64.33
2023-03-16T21:10:34.668Z,64.58
2023-03-16T21:13:02.823Z,64.50
2023-03-16T21:15:33.321Z,65.00
2023-03-16T21:18:03.888Z,64.11
2023-03-16T21:20:33.973Z,63.74
2023-03-16T21:23:04.486Z,64.39
2023-03-16T21:25:35.548Z,64.41
2023-03-16T21:28:06.032Z,64.22
2023-03-16T21:30:38.805Z,63.65
2023-03-16T21:33:18.711Z,63.49
2023-03-16T21:35:47.150Z,64.19
2023-03-16T21:38:19.918Z,64.29
2023-03-16T21:40:49.625Z,63.45
2023-03-16T21:43:18.290Z,63.32
2023-03-16T21:45:48.686Z,62.91
2023-03-16T21:48:21.504Z,64.00
2023-03-16T21:50:51.305Z,64.20
2023-03-16T21:53:23.938Z,63.83
2023-03-16T21:55:53.351Z,63.12
2023-03-16T21:58:23.236Z,63.46
2023-03-16T22:00:53.496Z,63.24
2023-03-16T22:03:29.593Z,63.21
2023-03-16T22:06:01.528Z,63.62
2023-03-16T22:08:33.079Z,63.41
2023-03-16T22:11:04.351Z,63.69
2023-03-16T22:13:34.530Z,63.33
2023-03-16T22:16:03.635Z,63.22
2023-03-16T22:18:35.789Z,63.43
2023-03-16T22:21:13.564Z,64.18
2023-03-16T22:23:43.075Z,64.52
2023-03-16T22:26:17.277Z,64.81
2023-03-16T22:28:48.252Z,65.18
2023-03-16T22:31:19.549Z,65.33
2023-03-16T22:33:48.618Z,65.15
2023-03-16T22:36:19.428Z,65.66
2023-03-16T22:38:54.095Z,65.67
2023-03-16T22:41:23.182Z,65.57
2023-03-16T22:43:51.344Z,65.99
2023-03-16T22:46:21.079Z,65.65
2023-03-16T22:48:49.242Z,65.65
2023-03-16T22:51:23.699Z,65.71
2023-03-16T22:53:57.067Z,66.02
2023-03-16T22:56:25.469Z,66.30
2023-03-16T22:58:56.211Z,65.82
2023-03-16T23:01:34.702Z,66.24
2023-03-16T23:04:03.417Z,66.26
2023-03-16T23:06:33.329Z,66.09
2023-03-16T23:09:03.619Z,66.15
2023-03-16T23:11:35.170Z,66.00
2023-03-16T23:14:03.974Z,66.67
2023-03-16T23:16:35.910Z,66.44
2023-03-16T23:19:15.249Z,66.66
2023-03-16T23:21:51.488Z,66.99
2023-03-16T23:24:21.377Z,66.76
2023-03-16T23:26:50.353Z,67.25
2023-03-16T23:29:18.617Z,67.18
2023-03-16T23:31:47.488Z,67.27
2023-03-16T23:34:17.279Z,67.67
2023-03-16T23:36:46.022Z,67.85
2023-03-16T23:39:14.325Z,67.88
2023-03-16T23:41:46.032Z,68.11
2023-03-16T23:44:18.635Z,68.07
2023-03-16T23:46:47.393Z,67.97
2023-03-16T23:49:20.023Z,68.47
2023-03-16T23:51:48.245Z,68.63
2023-03-16T23:54:19.458Z,68.54
2023-03-16T23:56:49.281Z,68.25
2023-03-16T23:59:19.048Z,68.10
